Time;durP1;ratioP1;P1;durP2;ratioP2;P2;SDS_P1;SDS_P2;PMS_P1;PMS_P2;Temp;Humidity;BMP_temperature;BMP_pressure;BME280_temperature;BME280_humidity;BME280_pressure;Samples;Min_cycle;Max_cycle;Signal;HPM_P1;HPM_P2
2020/12/16 00:01:00;;;;;;;7.82;3.80;;;;;;;2.90;87.72;100230.63;4899859;29;20184;-71
2020/12/16 00:03:28;;;;;;;6.95;3.72;;;;;;;2.90;87.83;100225.59;4899840;29;20116;-71
2020/12/16 00:05:56;;;;;;;8.35;3.75;;;;;;;2.82;87.67;100211.81;4899982;29;20392;-71
2020/12/16 00:08:24;;;;;;;8.23;3.55;;;;;;;2.80;87.70;100216.81;4899077;29;20048;-71
2020/12/16 00:10:52;;;;;;;6.68;3.45;;;;;;;2.89;87.49;100221.34;4899998;29;20068;-70
2020/12/16 00:13:20;;;;;;;8.65;4.07;;;;;;;2.93;88.13;100225.72;4899677;29;20452;-70
2020/12/16 00:15:49;;;;;;;10.73;4.68;;;;;;;3.00;87.35;100235.22;4899648;29;20041;-71
2020/12/16 00:18:17;;;;;;;11.15;4.50;;;;;;;2.98;88.12;100230.13;4899511;29;20037;-70
2020/12/16 00:20:45;;;;;;;9.98;4.25;;;;;;;2.97;87.75;100227.53;4899703;29;20059;-71
2020/12/16 00:23:13;;;;;;;10.75;5.07;;;;;;;2.93;87.61;100225.72;4899361;29;20069;-71
2020/12/16 00:25:41;;;;;;;10.35;4.75;;;;;;;2.94;88.03;100230.81;4899440;29;20049;-71
2020/12/16 00:28:10;;;;;;;9.35;4.75;;;;;;;2.97;88.16;100238.50;4899598;29;20124;-71
2020/12/16 00:30:38;;;;;;;11.18;5.63;;;;;;;2.83;87.85;100213.56;4899242;29;20044;-71
2020/12/16 00:33:05;;;;;;;9.35;4.32;;;;;;;2.96;87.79;100238.41;4899320;29;20563;-70
2020/12/16 00:35:33;;;;;;;7.78;4.00;;;;;;;2.94;88.45;100234.97;4899234;29;20044;-71
2020/12/16 00:38:01;;;;;;;9.93;4.43;;;;;;;2.93;87.87;100225.72;4899151;29;20037;-71
2020/12/16 00:40:29;;;;;;;7.68;3.58;;;;;;;2.47;88.16;100153.38;4899217;29;20047;-72
2020/12/16 00:43:04;;;;;;;10.18;4.28;;;;;;;3.00;88.05;100237.75;4897833;29;20447;-72
2020/12/16 00:45:33;;;;;;;9.27;4.20;;;;;;;2.92;88.16;100234.94;4899177;29;20089;-71
2020/12/16 00:48:00;;;;;;;7.97;3.30;;;;;;;2.86;88.02;100213.66;4898997;29;20044;-71
2020/12/16 00:50:29;;;;;;;6.50;3.17;;;;;;;2.95;88.59;100251.84;4897898;29;20526;-71
2020/12/16 00:53:02;;;;;;;7.45;3.40;;;;;;;2.94;87.98;100247.59;4897885;29;20096;-71
2020/12/16 00:55:36;;;;;;;8.68;4.00;;;;;;;2.75;87.88;100215.78;4882511;29;20064;-71
2020/12/16 00:58:05;;;;;;;9.07;4.70;;;;;;;2.96;88.78;100248.50;4897766;29;20503;-71
2020/12/16 01:00:39;;;;;;;10.00;3.63;;;;;;;2.53;88.38;100168.75;4897567;29;20491;-72
2020/12/16 01:03:08;;;;;;;7.65;3.47;;;;;;;3.03;88.99;100245.41;4897714;29;20052;-71
2020/12/16 01:05:51;;;;;;;10.05;4.60;;;;;;;2.98;88.61;100242.72;4898616;29;20040;-71
2020/12/16 01:08:19;;;;;;;7.38;3.50;;;;;;;2.97;88.54;100247.72;4826595;29;20053;-71
2020/12/16 01:10:49;;;;;;;8.45;3.63;;;;;;;2.86;88.35;100218.69;4826002;29;20054;-72
2020/12/16 01:13:17;;;;;;;9.95;4.88;;;;;;;2.98;89.22;100241.84;4826040;29;20431;-71
2020/12/16 01:15:46;;;;;;;8.57;4.18;;;;;;;2.98;89.23;100240.19;4841195;29;20089;-72
2020/12/16 01:18:15;;;;;;;7.47;3.60;;;;;;;3.02;88.78;100237.00;4840695;29;20038;-72
2020/12/16 01:20:47;;;;;;;6.63;3.25;;;;;;;2.93;88.39;100216.47;4826463;29;20117;-71
2020/12/16 01:23:35;;;;;;;5.78;3.00;;;;;;;3.01;88.73;100231.88;4840518;29;20038;-72
2020/12/16 01:26:06;;;;;;;6.80;3.17;;;;;;;2.95;89.09;100219.06;4841060;29;20449;-72
2020/12/16 01:28:43;;;;;;;7.88;3.63;;;;;;;2.99;88.43;100220.91;4825757;29;20046;-71
2020/12/16 01:31:13;;;;;;;7.93;3.58;;;;;;;3.08;88.76;100236.38;4825958;29;20042;-72
2020/12/16 01:33:43;;;;;;;6.88;3.65;;;;;;;3.07;89.38;100230.44;4841116;29;20046;-71
2020/12/16 01:36:19;;;;;;;8.45;3.90;;;;;;;3.08;88.71;100238.88;4825623;29;20061;-71
2020/12/16 01:38:47;;;;;;;9.10;3.67;;;;;;;3.09;88.33;100238.97;4840891;29;20058;-71
2020/12/16 01:41:18;;;;;;;7.40;3.28;;;;;;;2.97;88.43;100202.34;4825800;29;20062;-71
2020/12/16 01:44:03;;;;;;;6.13;3.25;;;;;;;3.13;88.97;100234.88;4825637;29;20050;-72
2020/12/16 01:46:31;;;;;;;8.23;3.47;;;;;;;3.12;88.76;100240.75;4821754;29;20050;-71
2020/12/16 01:48:59;;;;;;;7.38;3.53;;;;;;;3.07;89.35;100234.66;4825872;29;20077;-71
2020/12/16 01:51:27;;;;;;;7.47;3.17;;;;;;;3.05;89.30;100228.66;4840797;29;20058;-71
2020/12/16 01:53:58;;;;;;;6.97;3.63;;;;;;;3.09;89.19;100230.53;4825624;29;20069;-72
2020/12/16 01:56:27;;;;;;;6.15;3.15;;;;;;;3.04;89.12;100224.44;4840631;29;20045;-71
2020/12/16 01:59:05;;;;;;;7.45;3.25;;;;;;;3.04;88.66;100229.50;4825864;29;20077;-71
2020/12/16 02:01:36;;;;;;;7.78;3.83;;;;;;;2.95;89.18;100214.88;4840468;29;20054;-72
2020/12/16 02:04:05;;;;;;;6.45;2.97;;;;;;;3.11;88.85;100233.97;4840491;29;20442;-71
2020/12/16 02:06:35;;;;;;;9.73;3.90;;;;;;;3.11;88.91;100226.41;4825740;29;20061;-71
2020/12/16 02:09:05;;;;;;;7.75;3.47;;;;;;;3.12;88.96;100233.19;4840576;29;20098;-71
2020/12/16 02:11:38;;;;;;;9.13;3.72;;;;;;;2.73;88.93;100150.19;4840667;29;20050;-71
2020/12/16 02:14:15;;;;;;;7.60;3.65;;;;;;;3.15;89.18;100224.03;4825460;29;20050;-71
2020/12/16 02:16:46;;;;;;;7.90;3.42;;;;;;;2.87;88.67;100172.53;4840466;29;20042;-71
2020/12/16 02:19:15;;;;;;;6.68;3.25;;;;;;;3.15;89.56;100228.22;4840779;29;20046;-71
2020/12/16 02:21:52;;;;;;;7.82;3.65;;;;;;;3.18;89.07;100229.22;4840472;29;20050;-71
2020/12/16 02:24:21;;;;;;;7.87;3.00;;;;;;;3.19;89.36;100235.13;4895994;29;20049;-71
2020/12/16 02:26:51;;;;;;;8.10;4.05;;;;;;;3.06;89.24;100207.72;4896929;29;20053;-71
2020/12/16 02:29:19;;;;;;;7.20;3.42;;;;;;;3.19;88.62;100225.03;4897137;29;20380;-72
2020/12/16 02:31:52;;;;;;;9.15;4.07;;;;;;;2.96;89.37;100185.47;4899900;29;20056;-71
2020/12/16 02:34:20;;;;;;;8.20;4.00;;;;;;;3.21;89.43;100229.34;4900215;29;20048;-71
2020/12/16 02:36:48;;;;;;;8.68;4.07;;;;;;;3.23;89.01;100231.91;4900519;29;20048;-72
2020/12/16 02:39:27;;;;;;;9.60;4.15;;;;;;;3.24;89.18;100234.47;4900329;29;20052;-71
2020/12/16 02:42:09;;;;;;;11.60;4.63;;;;;;;2.64;89.31;100142.28;4900536;29;20140;-72
2020/12/16 02:44:37;;;;;;;9.77;4.20;;;;;;;3.16;88.87;100227.44;4900180;29;20062;-71
2020/12/16 02:47:18;;;;;;;9.32;4.05;;;;;;;3.21;88.75;100229.34;4900389;29;20395;-71
2020/12/16 02:49:48;;;;;;;9.70;4.90;;;;;;;3.23;88.80;100231.91;4900091;29;20071;-71
2020/12/16 02:52:17;;;;;;;10.13;4.63;;;;;;;2.73;88.92;100152.69;4900016;29;20499;-71
2020/12/16 02:54:48;;;;;;;10.73;4.35;;;;;;;3.24;88.92;100228.56;4901138;29;20048;-71
2020/12/16 02:57:25;;;;;;;11.10;4.43;;;;;;;3.16;89.09;100212.31;4901460;29;20136;-71
2020/12/16 02:59:58;;;;;;;10.25;4.78;;;;;;;3.29;89.67;100234.63;4899905;29;20083;-72
2020/12/16 03:02:29;;;;;;;9.77;4.47;;;;;;;3.29;89.49;100227.06;4900977;29;20068;-71
2020/12/16 03:05:17;;;;;;;10.47;4.03;;;;;;;3.26;88.97;100232.84;4901058;29;20057;-71
2020/12/16 03:07:45;;;;;;;10.20;4.75;;;;;;;3.26;88.61;100232.03;4899770;29;20045;-71
2020/12/16 03:10:14;;;;;;;12.10;4.72;;;;;;;3.25;89.76;100230.28;4899895;29;20052;-71
2020/12/16 03:12:42;;;;;;;10.30;4.57;;;;;;;3.14;89.01;100216.44;4899941;29;20049;-71
2020/12/16 03:15:10;;;;;;;11.25;4.60;;;;;;;3.28;88.85;100233.78;4899642;29;20127;-72
2020/12/16 03:17:38;;;;;;;11.60;5.40;;;;;;;3.27;89.26;100233.72;4899811;29;20072;-71
2020/12/16 03:20:07;;;;;;;11.43;4.85;;;;;;;3.25;89.19;100232.81;4899860;29;20075;-72
2020/12/16 03:22:35;;;;;;;10.25;4.63;;;;;;;3.23;89.19;100236.94;4899407;29;20041;-71
2020/12/16 03:25:06;;;;;;;8.70;4.35;;;;;;;3.25;89.22;100240.38;4900593;29;20139;-71
2020/12/16 03:27:38;;;;;;;11.50;5.15;;;;;;;3.27;89.22;100238.75;4900936;29;20123;-72
2020/12/16 03:30:19;;;;;;;11.20;4.95;;;;;;;3.12;89.37;100218.88;4899670;29;20056;-71
2020/12/16 03:32:57;;;;;;;10.95;4.63;;;;;;;3.27;89.21;100236.25;4899659;29;20051;-71
2020/12/16 03:35:38;;;;;;;8.60;4.45;;;;;;;3.24;89.25;100237.00;4899283;29;20272;-71
2020/12/16 03:38:08;;;;;;;9.25;4.25;;;;;;;3.29;88.76;100232.97;4899486;29;20407;-71
2020/12/16 03:40:38;;;;;;;10.75;5.20;;;;;;;3.30;89.46;100233.84;4899999;29;20076;-72
2020/12/16 03:43:06;;;;;;;10.63;4.70;;;;;;;3.30;88.93;100224.63;4899936;29;20045;-72
2020/12/16 03:45:35;;;;;;;12.65;5.57;;;;;;;3.28;89.32;100220.31;4899172;29;20499;-72
2020/12/16 03:48:07;;;;;;;;;;;;;;;3.33;89.57;100228.91;4900554;29;20045;-72
2020/12/16 03:50:37;;;;;;;12.45;4.85;;;;;;;3.32;89.09;100232.22;4899063;29;19923;-72
2020/12/16 03:53:06;;;;;;;13.45;5.70;;;;;;;2.70;89.61;100121.50;4898942;29;20077;-71
2020/12/16 03:55:37;;;;;;;10.40;5.25;;;;;;;3.10;89.46;100184.31;4900010;29;20048;-72
2020/12/16 03:58:16;;;;;;;13.80;5.30;;;;;;;3.31;88.84;100231.38;4899137;29;20414;-72
2020/12/16 04:00:48;;;;;;;13.15;5.55;;;;;;;3.21;89.61;100208.28;4899770;29;20275;-72
2020/12/16 04:03:16;;;;;;;12.50;5.70;;;;;;;3.28;89.01;100215.28;4899019;29;20139;-72
2020/12/16 04:05:55;;;;;;;11.40;5.25;;;;;;;3.11;88.83;100191.09;4898781;29;20057;-71
2020/12/16 04:08:22;;;;;;;14.15;6.07;;;;;;;3.32;89.37;100227.19;4898899;29;20112;-72
2020/12/16 04:11:12;;;;;;;9.63;4.63;;;;;;;2.89;89.21;100149.09;4913949;29;20053;-71
2020/12/16 04:13:42;;;;;;;10.73;4.93;;;;;;;3.33;89.63;100228.91;4898951;29;20056;-72
2020/12/16 04:16:13;;;;;;;9.98;4.68;;;;;;;3.15;89.39;100198.81;4898568;29;20049;-71
2020/12/16 04:18:59;;;;;;;9.93;4.28;;;;;;;3.31;89.27;100220.44;4898556;29;20076;-72
2020/12/16 04:21:27;;;;;;;11.38;4.65;;;;;;;3.32;89.40;100228.06;4826855;29;20046;-71
2020/12/16 04:23:54;;;;;;;12.25;5.30;;;;;;;2.67;89.36;100117.22;4826993;29;20046;-72
2020/12/16 04:26:33;;;;;;;10.23;4.72;;;;;;;3.35;89.78;100224.78;4826760;29;20114;-72
2020/12/16 04:29:06;;;;;;;11.27;4.80;;;;;;;3.22;89.69;100188.16;4826638;29;20061;-71
2020/12/16 04:31:36;;;;;;;11.23;4.95;;;;;;;3.35;89.58;100220.59;4811815;29;20085;-72
2020/12/16 04:34:04;;;;;;;10.40;4.55;;;;;;;3.30;88.73;100224.63;4826799;29;20070;-72
2020/12/16 04:36:33;;;;;;;12.60;5.60;;;;;;;3.34;88.83;100220.53;4826516;29;20501;-72
2020/12/16 04:39:01;;;;;;;10.38;4.75;;;;;;;3.22;89.63;100200.78;4826564;29;20154;-71
2020/12/16 04:41:31;;;;;;;12.52;5.10;;;;;;;3.38;89.25;100232.47;4826479;29;20159;-71
2020/12/16 04:44:10;;;;;;;9.88;4.57;;;;;;;3.40;89.41;100225.81;4826329;29;20585;-72
2020/12/16 04:46:42;;;;;;;11.02;5.22;;;;;;;3.41;89.34;100227.50;4826426;29;20046;-71
2020/12/16 04:49:17;;;;;;;12.52;5.50;;;;;;;3.22;89.36;100199.91;4826530;29;20057;-72
2020/12/16 04:51:51;;;;;;;11.52;5.45;;;;;;;3.38;89.16;100232.47;4826497;29;20062;-72
2020/12/16 04:54:32;;;;;;;11.60;4.90;;;;;;;3.28;89.81;100215.28;4825714;29;20575;-71
2020/12/16 04:57:06;;;;;;;10.95;4.88;;;;;;;3.39;89.30;100241.75;4826280;29;20054;-71
2020/12/16 04:59:39;;;;;;;9.60;4.53;;;;;;;3.26;89.78;100217.72;4892786;29;20057;-72
2020/12/16 05:02:11;;;;;;;12.70;6.30;;;;;;;3.25;89.23;100222.72;4898856;29;20100;-72
2020/12/16 05:04:58;;;;;;;11.02;5.90;;;;;;;3.28;89.01;100230.41;4898986;29;20072;-72
2020/12/16 05:07:27;;;;;;;12.10;4.78;;;;;;;3.39;89.37;100236.69;4899067;29;20507;-72
2020/12/16 05:09:55;;;;;;;15.38;6.10;;;;;;;3.36;88.73;100236.56;4898758;29;20570;-72
2020/12/16 05:12:22;;;;;;;13.98;6.15;;;;;;;3.39;89.77;100239.22;4898698;29;20048;-71
2020/12/16 05:14:50;;;;;;;12.40;5.18;;;;;;;3.38;89.42;100235.00;4898969;29;20041;-72
2020/12/16 05:17:19;;;;;;;11.00;5.60;;;;;;;3.31;89.36;100235.56;4898674;29;20108;-71
2020/12/16 05:20:04;;;;;;;9.05;4.72;;;;;;;3.18;88.72;100223.31;4897794;29;20056;-72
2020/12/16 05:22:32;;;;;;;13.27;5.38;;;;;;;3.30;89.46;100238.88;4898605;29;20064;-71
2020/12/16 05:25:00;;;;;;;9.80;4.97;;;;;;;3.36;89.68;100234.91;4898473;29;20053;-71
2020/12/16 05:27:29;;;;;;;9.88;4.32;;;;;;;3.22;89.18;100204.94;4898571;29;20049;-72
2020/12/16 05:30:11;;;;;;;10.60;4.82;;;;;;;3.30;89.44;100238.88;4898548;29;20048;-72
2020/12/16 05:32:40;;;;;;;13.25;5.55;;;;;;;3.25;89.38;100230.28;4840994;29;20053;-72
2020/12/16 05:35:20;;;;;;;11.93;5.45;;;;;;;3.30;89.40;100221.22;4840881;29;20468;-71
2020/12/16 05:37:48;;;;;;;13.55;5.28;;;;;;;3.35;88.96;100242.44;4840951;29;20046;-71
2020/12/16 05:40:17;;;;;;;12.00;5.32;;;;;;;3.30;89.73;100238.88;4840779;29;20050;-71
2020/12/16 05:42:47;;;;;;;9.82;4.93;;;;;;;3.32;88.99;100242.31;4840745;29;20474;-71
2020/12/16 05:45:15;;;;;;;11.45;5.18;;;;;;;3.33;89.12;100242.41;4840673;29;20501;-72
2020/12/16 05:47:57;;;;;;;12.77;5.18;;;;;;;3.26;89.74;100222.75;4825677;29;20374;-71
2020/12/16 05:50:25;;;;;;;10.40;5.15;;;;;;;3.31;88.85;100235.56;4840851;29;20137;-71
2020/12/16 05:53:08;;;;;;;12.45;5.97;;;;;;;3.34;89.14;100240.72;4840740;29;20126;-71
2020/12/16 05:55:52;;;;;;;;;;;;;;;3.37;89.28;100245.88;4804804;29;20047;-71
2020/12/16 05:58:21;;;;;;;11.98;5.50;;;;;;;3.38;89.77;100248.44;4804190;29;19933;-71
2020/12/16 06:00:51;;;;;;;11.75;5.40;;;;;;;3.23;89.59;100230.25;4803997;29;20078;-71
2020/12/16 06:03:26;;;;;;;12.80;5.32;;;;;;;3.36;88.98;100259.28;4804284;29;20086;-71
2020/12/16 06:05:55;;;;;;;14.05;5.35;;;;;;;3.27;89.76;100261.47;4807146;29;20418;-72
2020/12/16 06:08:24;;;;;;;12.65;5.75;;;;;;;2.98;89.03;100204.91;4807788;29;20055;-71
2020/12/16 06:10:52;;;;;;;8.43;3.67;;;;;;;3.27;89.25;100259.81;4858709;29;20146;-72
2020/12/16 06:13:24;;;;;;;9.68;4.38;;;;;;;3.35;89.10;100272.72;4862603;29;20057;-72
2020/12/16 06:15:59;;;;;;;10.75;4.45;;;;;;;3.33;89.19;100277.72;4862607;29;20045;-72
2020/12/16 06:18:31;;;;;;;8.82;4.22;;;;;;;3.33;89.27;100279.38;4862518;29;20060;-71
2020/12/16 06:20:59;;;;;;;9.48;4.50;;;;;;;3.30;89.00;100270.03;4862755;29;20166;-71
2020/12/16 06:23:31;;;;;;;9.63;4.65;;;;;;;2.87;89.44;100190.19;4862287;29;20045;-72
2020/12/16 06:26:12;;;;;;;11.77;4.47;;;;;;;3.31;88.96;100270.88;4862417;29;20200;-71
2020/12/16 06:28:40;;;;;;;9.40;4.78;;;;;;;3.30;89.10;100281.78;4862377;29;20076;-71
2020/12/16 06:31:15;;;;;;;9.15;4.13;;;;;;;3.29;89.69;100282.56;4862272;29;20133;-71
2020/12/16 06:33:47;;;;;;;11.38;5.07;;;;;;;3.03;89.37;100227.75;4898071;29;20055;-71
2020/12/16 06:36:17;;;;;;;10.25;4.78;;;;;;;3.31;88.77;100275.94;4901819;29;20067;-72
2020/12/16 06:38:45;;;;;;;9.98;4.75;;;;;;;3.30;89.37;100279.25;4901413;29;20403;-72
2020/12/16 06:41:20;;;;;;;9.65;4.00;;;;;;;3.28;89.13;100281.72;4901386;29;20075;-72
2020/12/16 06:43:50;;;;;;;10.65;4.57;;;;;;;3.22;89.55;100260.44;4901524;29;20411;-72
2020/12/16 06:46:24;;;;;;;10.10;4.55;;;;;;;3.29;89.79;100278.38;4901253;29;20491;-72
2020/12/16 06:49:08;;;;;;;16.92;9.07;;;;;;;3.26;89.48;100282.47;4901737;29;20146;-72
2020/12/16 06:51:40;;;;;;;13.13;7.25;;;;;;;3.27;89.35;100277.47;4843595;29;20054;-71
2020/12/16 06:54:09;;;;;;;14.27;7.55;;;;;;;3.29;89.55;100268.28;4828126;29;20098;-71
2020/12/16 06:56:41;;;;;;;13.68;7.07;;;;;;;3.32;89.54;100285.19;4843403;29;20058;-71
2020/12/16 06:59:08;;;;;;;10.90;5.82;;;;;;;3.14;89.57;100262.66;4843317;29;20133;-71
2020/12/16 07:01:37;;;;;;;12.83;6.37;;;;;;;3.29;89.20;100287.59;4843256;29;20449;-71
2020/12/16 07:04:06;;;;;;;12.45;5.95;;;;;;;3.31;89.63;100296.94;4827802;29;20042;-71
2020/12/16 07:06:37;;;;;;;13.52;5.55;;;;;;;3.29;89.48;100292.66;4843047;29;20056;-71
2020/12/16 07:09:10;;;;;;;13.38;5.38;;;;;;;3.35;89.17;100295.41;4843205;29;20079;-71
2020/12/16 07:11:38;;;;;;;10.23;5.05;;;;;;;3.29;89.63;100280.91;4843157;29;20493;-71
2020/12/16 07:14:08;;;;;;;10.55;5.03;;;;;;;3.40;89.81;100296.44;4843078;29;20074;-71
2020/12/16 07:16:36;;;;;;;12.68;5.35;;;;;;;3.39;89.70;100302.28;4842555;29;20049;-71
2020/12/16 07:19:04;;;;;;;11.43;5.47;;;;;;;3.41;89.31;100298.16;4842973;29;20069;-71
2020/12/16 07:21:32;;;;;;;11.73;4.90;;;;;;;3.29;89.79;100277.50;4843002;29;20421;-72
2020/12/16 07:24:10;;;;;;;10.90;5.68;;;;;;;3.36;89.59;100294.59;4842871;29;20479;-71
2020/12/16 07:26:48;;;;;;;11.02;4.80;;;;;;;3.41;89.99;100293.09;4842958;29;20046;-71
2020/12/16 07:29:19;;;;;;;11.43;5.05;;;;;;;3.43;90.05;100296.56;4883817;29;20450;-71
2020/12/16 07:31:56;;;;;;;10.18;5.30;;;;;;;3.34;90.00;100286.13;4900530;29;20053;-72
2020/12/16 07:34:24;;;;;;;11.27;5.00;;;;;;;3.16;89.29;100257.69;4900414;29;20590;-72
2020/12/16 07:36:55;;;;;;;10.35;4.97;;;;;;;3.41;89.75;100293.09;4900309;29;20048;-71
2020/12/16 07:39:23;;;;;;;12.15;5.55;;;;;;;3.30;89.49;100285.16;4900259;29;20048;-71
2020/12/16 07:41:51;;;;;;;13.00;6.00;;;;;;;3.33;89.82;100294.50;4900245;29;20041;-72
2020/12/16 07:44:19;;;;;;;10.68;5.25;;;;;;;3.29;89.65;100285.06;4900182;29;20072;-71
2020/12/16 07:46:47;;;;;;;10.57;4.93;;;;;;;3.45;89.24;100310.09;4900235;29;20491;-71
2020/12/16 07:49:16;;;;;;;12.50;5.55;;;;;;;3.44;89.79;100318.47;4900455;29;20181;-71
2020/12/16 07:51:46;;;;;;;22.67;12.05;;;;;;;3.43;89.83;100321.81;4900183;29;20053;-72
2020/12/16 07:54:14;;;;;;;19.52;10.50;;;;;;;3.42;89.14;100315.03;4900121;29;20068;-71
2020/12/16 07:56:49;;;;;;;14.68;7.40;;;;;;;3.38;89.39;100308.16;4900076;29;20511;-72
2020/12/16 07:59:17;;;;;;;14.75;7.75;;;;;;;3.30;89.96;100300.28;4900039;29;20048;-72
2020/12/16 08:01:45;;;;;;;11.30;5.22;;;;;;;3.34;89.97;100306.28;4899910;29;20132;-71
2020/12/16 08:04:15;;;;;;;10.30;5.63;;;;;;;3.42;90.12;100325.13;4899433;29;20376;-71
2020/12/16 08:06:43;;;;;;;11.43;5.40;;;;;;;3.33;89.24;100314.69;4899862;29;20063;-72
2020/12/16 08:09:20;;;;;;;12.68;5.25;;;;;;;3.42;90.10;100320.06;4899839;29;20068;-72
2020/12/16 08:11:49;;;;;;;10.25;5.15;;;;;;;3.10;89.68;100270.91;4899705;29;20060;-72
2020/12/16 08:14:16;;;;;;;12.90;5.80;;;;;;;3.38;89.98;100314.03;4899784;29;20056;-72
2020/12/16 08:16:45;;;;;;;13.32;5.75;;;;;;;3.37;89.64;100312.31;4899462;29;20048;-71
2020/12/16 08:19:17;;;;;;;14.07;7.20;;;;;;;3.50;90.10;100336.38;4899592;29;20128;-72
2020/12/16 08:21:49;;;;;;;11.57;6.10;;;;;;;3.35;89.54;100313.06;4899531;29;20057;-71
2020/12/16 08:24:17;;;;;;;11.20;5.28;;;;;;;3.46;89.93;100336.16;4899460;29;20060;-72
2020/12/16 08:26:44;;;;;;;10.02;4.88;;;;;;;3.45;89.70;100334.47;4899530;29;20044;-72
2020/12/16 08:29:13;;;;;;;9.98;5.10;;;;;;;3.38;90.20;100329.16;4898291;29;20052;-71
2020/12/16 08:31:41;;;;;;;11.00;5.13;;;;;;;3.50;89.38;100338.03;4899360;29;20099;-71
2020/12/16 08:34:09;;;;;;;10.82;4.50;;;;;;;3.43;89.75;100321.81;4899303;29;20393;-71
2020/12/16 08:36:37;;;;;;;9.52;4.90;;;;;;;3.53;89.29;100345.72;4899291;29;20048;-71
2020/12/16 08:39:05;;;;;;;12.07;5.30;;;;;;;3.53;89.63;100346.56;4899275;29;20044;-72
2020/12/16 08:41:34;;;;;;;11.38;5.45;;;;;;;3.54;90.29;100349.94;4899181;29;20041;-71
2020/12/16 08:44:06;;;;;;;12.48;5.60;;;;;;;3.56;89.31;100351.72;4899172;29;20048;-72
2020/12/16 08:46:39;;;;;;;12.77;6.38;;;;;;;3.56;89.19;100349.19;4899039;29;20530;-72
2020/12/16 08:49:07;;;;;;;12.15;5.05;;;;;;;3.59;89.67;100349.31;4898022;29;20136;-72
2020/12/16 08:51:35;;;;;;;11.60;5.65;;;;;;;3.47;89.74;100338.75;4898925;29;20172;-71
2020/12/16 08:54:04;;;;;;;10.77;5.13;;;;;;;3.54;89.64;100360.91;4898996;29;20404;-72
2020/12/16 08:56:33;;;;;;;11.80;4.70;;;;;;;3.56;89.27;100364.34;4898903;29;20052;-72
2020/12/16 08:59:02;;;;;;;12.73;5.50;;;;;;;3.42;89.73;100344.44;4898968;29;20069;-72
2020/12/16 09:01:31;;;;;;;9.10;4.50;;;;;;;3.51;89.48;100360.78;4898995;29;20453;-72
2020/12/16 09:03:59;;;;;;;11.30;4.95;;;;;;;3.40;89.54;100336.81;4898636;29;20132;-72
2020/12/16 09:06:29;;;;;;;9.70;4.70;;;;;;;3.54;89.95;100343.25;4898892;29;20128;-71
2020/12/16 09:08:57;;;;;;;12.07;5.00;;;;;;;3.58;89.46;100362.72;4898804;29;20045;-71
2020/12/16 09:11:25;;;;;;;9.90;4.55;;;;;;;3.47;89.93;100338.75;4898792;29;20040;-72
2020/12/16 09:13:58;;;;;;;11.10;5.25;;;;;;;3.59;89.18;100356.91;4898987;29;20052;-72
2020/12/16 09:16:46;;;;;;;10.15;5.03;;;;;;;3.62;89.96;100358.66;4915574;29;20511;-72
2020/12/16 09:19:18;;;;;;;9.77;4.90;;;;;;;3.58;89.50;100342.53;4915690;29;20068;-71
2020/12/16 09:21:47;;;;;;;11.65;5.18;;;;;;;3.68;89.68;100349.66;4915591;29;20048;-71
2020/12/16 09:24:18;;;;;;;11.02;4.82;;;;;;;3.70;89.60;100347.19;4915327;29;20044;-71
2020/12/16 09:26:46;;;;;;;13.73;5.88;;;;;;;3.68;90.12;100349.66;4915459;29;20218;-71
2020/12/16 09:29:18;;;;;;;10.40;5.43;;;;;;;3.71;89.25;100353.97;4915421;29;20518;-72
2020/12/16 09:31:46;;;;;;;14.18;6.35;;;;;;;3.73;89.55;100349.81;4915482;29;20131;-72
2020/12/16 09:34:14;;;;;;;14.65;6.82;;;;;;;3.72;89.77;100356.53;4915280;29;20562;-72
2020/12/16 09:36:43;;;;;;;13.30;6.05;;;;;;;3.49;89.54;100311.91;4915486;29;20094;-72
2020/12/16 09:39:11;;;;;;;11.63;5.75;;;;;;;3.77;89.97;100355.03;4916698;29;20123;-71
2020/12/16 09:41:43;;;;;;;12.50;6.20;;;;;;;3.86;89.27;100352.84;4921648;29;20075;-71
2020/12/16 09:44:19;;;;;;;15.32;6.32;;;;;;;3.89;89.01;100350.44;4921522;29;20044;-72
2020/12/16 09:46:47;;;;;;;13.27;6.97;;;;;;;3.90;89.65;100351.31;4921483;29;20192;-72
2020/12/16 09:49:14;;;;;;;13.10;6.68;;;;;;;3.91;89.71;100348.00;4921511;29;20051;-72
2020/12/16 09:51:43;;;;;;;15.30;6.80;;;;;;;3.81;89.57;100341.75;4921213;29;20044;-72
2020/12/16 09:54:11;;;;;;;14.30;6.57;;;;;;;3.88;90.01;100348.75;4911032;29;20079;-71
2020/12/16 09:56:39;;;;;;;14.10;6.28;;;;;;;3.86;89.04;100350.31;4903439;29;20055;-72
2020/12/16 09:59:07;;;;;;;11.38;6.00;;;;;;;3.80;89.38;100350.13;4904611;29;20037;-72
2020/12/16 10:01:35;;;;;;;11.00;6.10;;;;;;;3.88;89.81;100358.84;4904067;29;20045;-72
2020/12/16 10:04:03;;;;;;;12.15;5.95;;;;;;;3.90;89.10;100357.22;4904466;29;20044;-71
2020/12/16 10:06:30;;;;;;;12.13;5.88;;;;;;;3.85;89.18;100332.59;4904509;29;20100;-72
2020/12/16 10:08:59;;;;;;;13.10;5.97;;;;;;;3.87;89.08;100336.91;4904387;29;20068;-72
2020/12/16 10:11:30;;;;;;;12.40;5.80;;;;;;;3.77;89.34;100324.75;4904480;29;20045;-72
2020/12/16 10:13:57;;;;;;;11.40;5.60;;;;;;;3.81;89.44;100326.59;4904510;29;20088;-71
2020/12/16 10:16:25;;;;;;;11.13;5.32;;;;;;;3.80;88.88;100329.91;4904421;29;20040;-71
2020/12/16 10:18:53;;;;;;;11.60;5.40;;;;;;;3.87;88.93;100320.91;4904363;29;20059;-72
2020/12/16 10:21:20;;;;;;;11.35;5.35;;;;;;;3.82;89.53;100318.19;4904430;29;20076;-72
2020/12/16 10:23:49;;;;;;;11.18;5.10;;;;;;;3.45;88.53;100259.66;4904332;29;20068;-71
2020/12/16 10:26:17;;;;;;;11.48;4.85;;;;;;;3.71;88.82;100301.81;4904234;29;20057;-72
2020/12/16 10:28:45;;;;;;;11.52;5.45;;;;;;;3.80;89.36;100308.84;4904480;29;20048;-72
2020/12/16 10:31:13;;;;;;;11.02;4.97;;;;;;;3.82;88.77;100315.69;4903037;29;20045;-72
2020/12/16 10:33:41;;;;;;;12.35;5.65;;;;;;;3.80;88.33;100314.78;4903136;29;20044;-72
2020/12/16 10:36:12;;;;;;;13.95;5.95;;;;;;;3.78;89.15;100306.28;4904304;29;20108;-72
2020/12/16 10:38:40;;;;;;;12.27;5.85;;;;;;;3.82;89.19;100308.09;4904261;29;20504;-71
2020/12/16 10:41:07;;;;;;;11.52;4.82;;;;;;;3.74;88.88;100304.44;4904263;29;20092;-71
2020/12/16 10:43:36;;;;;;;12.25;6.07;;;;;;;3.67;88.99;100297.44;4904101;29;20040;-71
2020/12/16 10:46:07;;;;;;;10.60;5.07;;;;;;;3.75;89.28;100316.25;4904450;29;20558;-71
2020/12/16 10:48:35;;;;;;;11.60;5.60;;;;;;;3.78;88.30;100311.34;4904276;29;20048;-71
2020/12/16 10:51:03;;;;;;;12.68;5.88;;;;;;;3.87;88.52;100310.78;4902065;29;20048;-71
2020/12/16 10:53:32;;;;;;;13.15;6.30;;;;;;;3.92;88.99;100310.16;4901183;29;20047;-72
2020/12/16 10:58:50;;;;;;;11.23;5.03;;;;;;;3.66;88.57;100280.59;4862121;29;20062;-71
2020/12/16 11:01:17;;;;;;;;;;;;;;;3.85;89.04;100302.31;4862144;29;20068;-71
2020/12/16 11:03:45;;;;;;;11.48;5.55;;;;;;;3.68;88.86;100262.97;4861752;29;19971;-71
2020/12/16 11:06:15;;;;;;;12.25;5.72;;;;;;;3.91;88.74;100308.44;4861723;29;20069;-71
2020/12/16 11:08:43;;;;;;;13.27;6.82;;;;;;;3.94;89.10;100300.97;4861860;29;20063;-71
2020/12/16 11:11:11;;;;;;;10.98;5.43;;;;;;;3.96;88.24;100296.81;4861546;29;20052;-71
2020/12/16 11:13:41;;;;;;;11.30;5.97;;;;;;;4.00;88.69;100298.69;4861552;29;20054;-71
2020/12/16 11:16:09;;;;;;;11.63;5.40;;;;;;;3.98;88.21;100295.22;4861603;29;20074;-71
2020/12/16 11:18:37;;;;;;;10.88;5.28;;;;;;;3.99;88.76;100304.53;4861453;29;20045;-72
2020/12/16 11:21:05;;;;;;;12.25;5.93;;;;;;;3.63;88.10;100247.66;4861414;29;20054;-72
2020/12/16 11:23:32;;;;;;;14.48;6.85;;;;;;;3.90;88.40;100286.53;4861313;29;20046;-71
2020/12/16 11:26:01;;;;;;;12.93;6.03;;;;;;;3.89;88.51;100284.78;4861004;29;20053;-74
2020/12/16 11:28:29;;;;;;;11.90;5.53;;;;;;;3.69;88.08;100235.28;4861385;29;20128;-72
2020/12/16 11:30:57;;;;;;;13.63;5.57;;;;;;;4.06;88.15;100298.88;4861233;29;20543;-71
2020/12/16 11:33:27;;;;;;;13.40;5.82;;;;;;;3.95;88.34;100272.41;4861252;29;20073;-71
2020/12/16 11:35:55;;;;;;;26.60;13.10;;;;;;;4.04;87.79;100300.50;4881628;29;20076;-72
2020/12/16 11:38:23;;;;;;;27.95;14.55;;;;;;;4.03;87.95;100291.19;4900402;29;20051;-71
2020/12/16 11:40:51;;;;;;;14.70;7.78;;;;;;;4.06;87.98;100291.31;4900293;29;20040;-71
2020/12/16 11:43:19;;;;;;;13.30;6.93;;;;;;;4.01;88.03;100275.13;4900241;29;20149;-72
2020/12/16 11:45:47;;;;;;;13.55;6.68;;;;;;;4.13;87.87;100294.06;4900186;29;20099;-71
2020/12/16 11:48:14;;;;;;;14.23;6.60;;;;;;;3.98;87.73;100287.63;4890148;29;20467;-71